sensor_id;sensor_type;location;lat;lon;timestamp;temperature;humidity
35678;DHT22;21791;42.828;74.582;2023-02-04T07:23:36;6.20;99.90
35678;DHT22;21791;42.828;74.582;2023-02-04T07:26:02;6.40;99.90
35678;DHT22;21791;42.828;74.582;2023-02-04T07:28:29;6.10;99.90
35678;DHT22;21791;42.828;74.582;2023-02-04T07:30:56;6.50;99.90
35678;DHT22;21791;42.828;74.582;2023-02-04T07:33:23;5.80;99.90
35678;DHT22;21791;42.828;74.582;2023-02-04T07:35:49;5.80;99.90
35678;DHT22;21791;42.828;74.582;2023-02-04T07:38:16;5.90;99.90
35678;DHT22;21791;42.828;74.582;2023-02-04T07:40:42;6.00;99.90
35678;DHT22;21791;42.828;74.582;2023-02-04T07:43:12;6.00;99.90
35678;DHT22;21791;42.828;74.582;2023-02-04T07:45:38;6.00;99.90
35678;DHT22;21791;42.828;74.582;2023-02-04T07:48:05;6.30;99.90
35678;DHT22;21791;42.828;74.582;2023-02-04T07:50:31;6.10;99.90
35678;DHT22;21791;42.828;74.582;2023-02-04T07:52:58;5.90;99.90
35678;DHT22;21791;42.828;74.582;2023-02-04T07:55:24;6.60;99.90
35678;DHT22;21791;42.828;74.582;2023-02-04T07:57:51;6.80;99.90
35678;DHT22;21791;42.828;74.582;2023-02-04T08:00:18;7.30;99.90
35678;DHT22;21791;42.828;74.582;2023-02-04T08:02:44;7.40;99.90
35678;DHT22;21791;42.828;74.582;2023-02-04T08:05:11;7.30;99.90
35678;DHT22;21791;42.828;74.582;2023-02-04T08:07:38;7.80;99.90
35678;DHT22;21791;42.828;74.582;2023-02-04T08:10:06;7.90;99.90
35678;DHT22;21791;42.828;74.582;2023-02-04T08:12:32;8.50;99.90
35678;DHT22;21791;42.828;74.582;2023-02-04T08:15:00;9.20;99.90
35678;DHT22;21791;42.828;74.582;2023-02-04T08:17:26;8.50;99.90
35678;DHT22;21791;42.828;74.582;2023-02-04T08:19:53;8.00;99.90
35678;DHT22;21791;42.828;74.582;2023-02-04T08:22:20;7.70;99.90
35678;DHT22;21791;42.828;74.582;2023-02-04T08:24:46;8.00;99.90
35678;DHT22;21791;42.828;74.582;2023-02-04T08:27:13;7.90;99.90
35678;DHT22;21791;42.828;74.582;2023-02-04T08:29:40;7.20;99.90
35678;DHT22;21791;42.828;74.582;2023-02-04T08:32:07;7.20;99.90
35678;DHT22;21791;42.828;74.582;2023-02-04T08:34:36;7.40;99.90
35678;DHT22;21791;42.828;74.582;2023-02-04T08:37:02;7.30;99.90
35678;DHT22;21791;42.828;74.582;2023-02-04T08:39:29;7.20;99.90
35678;DHT22;21791;42.828;74.582;2023-02-04T08:41:55;7.60;99.90
35678;DHT22;21791;42.828;74.582;2023-02-04T08:44:22;7.80;99.90
35678;DHT22;21791;42.828;74.582;2023-02-04T08:46:48;8.40;99.90
35678;DHT22;21791;42.828;74.582;2023-02-04T08:49:14;8.30;99.90
35678;DHT22;21791;42.828;74.582;2023-02-04T08:51:41;7.40;99.90
35678;DHT22;21791;42.828;74.582;2023-02-04T08:54:07;7.00;99.90
35678;DHT22;21791;42.828;74.582;2023-02-04T08:56:34;6.50;99.90
35678;DHT22;21791;42.828;74.582;2023-02-04T08:59:01;6.60;99.90
35678;DHT22;21791;42.828;74.582;2023-02-04T09:01:27;6.50;99.90
35678;DHT22;21791;42.828;74.582;2023-02-04T09:03:54;6.60;99.90
35678;DHT22;21791;42.828;74.582;2023-02-04T09:06:20;6.50;99.90
35678;DHT22;21791;42.828;74.582;2023-02-04T09:08:47;6.60;99.90
35678;DHT22;21791;42.828;74.582;2023-02-04T09:11:13;6.50;99.90
35678;DHT22;21791;42.828;74.582;2023-02-04T09:13:40;6.70;99.90
35678;DHT22;21791;42.828;74.582;2023-02-04T09:16:07;6.50;99.90
35678;DHT22;21791;42.828;74.582;2023-02-04T09:18:33;6.30;99.90
35678;DHT22;21791;42.828;74.582;2023-02-04T09:21:00;6.10;99.90
35678;DHT22;21791;42.828;74.582;2023-02-04T09:23:27;5.70;99.90
35678;DHT22;21791;42.828;74.582;2023-02-04T09:25:54;5.60;99.90
35678;DHT22;21791;42.828;74.582;2023-02-04T09:28:20;5.70;99.90
35678;DHT22;21791;42.828;74.582;2023-02-04T09:30:47;5.70;99.90
35678;DHT22;21791;42.828;74.582;2023-02-04T09:33:15;5.50;99.90
35678;DHT22;21791;42.828;74.582;2023-02-04T09:35:44;5.40;99.90
35678;DHT22;21791;42.828;74.582;2023-02-04T09:38:10;5.20;99.90
35678;DHT22;21791;42.828;74.582;2023-02-04T09:40:41;5.80;99.90
35678;DHT22;21791;42.828;74.582;2023-02-04T09:43:17;6.50;99.90
35678;DHT22;21791;42.828;74.582;2023-02-04T09:45:47;6.60;99.90
35678;DHT22;21791;42.828;74.582;2023-02-04T09:48:14;6.40;99.90
35678;DHT22;21791;42.828;74.582;2023-02-04T09:50:41;6.20;99.90
35678;DHT22;21791;42.828;74.582;2023-02-04T09:53:13;6.50;99.90
35678;DHT22;21791;42.828;74.582;2023-02-04T09:55:44;6.00;99.90
35678;DHT22;21791;42.828;74.582;2023-02-04T09:58:21;6.30;99.90
35678;DHT22;21791;42.828;74.582;2023-02-04T10:01:17;6.20;99.90
35678;DHT22;21791;42.828;74.582;2023-02-04T10:03:46;5.70;99.90
35678;DHT22;21791;42.828;74.582;2023-02-04T10:06:20;5.70;99.90
35678;DHT22;21791;42.828;74.582;2023-02-04T10:08:49;5.50;99.90
35678;DHT22;21791;42.828;74.582;2023-02-04T10:11:18;5.50;99.90
35678;DHT22;21791;42.828;74.582;2023-02-04T10:13:48;5.70;99.90
35678;DHT22;21791;42.828;74.582;2023-02-04T10:16:29;5.80;99.90
35678;DHT22;21791;42.828;74.582;2023-02-04T10:19:03;5.90;99.90
35678;DHT22;21791;42.828;74.582;2023-02-04T10:21:32;5.90;99.90
35678;DHT22;21791;42.828;74.582;2023-02-04T10:24:03;5.80;99.90
35678;DHT22;21791;42.828;74.582;2023-02-04T10:26:31;5.90;99.90
35678;DHT22;21791;42.828;74.582;2023-02-04T10:29:04;6.00;99.90
35678;DHT22;21791;42.828;74.582;2023-02-04T10:31:38;6.30;99.90
35678;DHT22;21791;42.828;74.582;2023-02-04T10:34:18;7.00;99.90
35678;DHT22;21791;42.828;74.582;2023-02-04T10:36:47;7.60;99.90
35678;DHT22;21791;42.828;74.582;2023-02-04T10:39:23;7.80;99.90
35678;DHT22;21791;42.828;74.582;2023-02-04T10:44:31;6.90;99.90
35678;DHT22;21791;42.828;74.582;2023-02-04T10:47:16;7.80;99.90
35678;DHT22;21791;42.828;74.582;2023-02-04T10:50:10;7.70;99.90
35678;DHT22;21791;42.828;74.582;2023-02-04T10:52:46;8.10;99.90
35678;DHT22;21791;42.828;74.582;2023-02-04T10:55:17;8.80;99.90
35678;DHT22;21791;42.828;74.582;2023-02-04T10:57:46;8.60;99.90
35678;DHT22;21791;42.828;74.582;2023-02-04T11:00:18;8.30;99.90
35678;DHT22;21791;42.828;74.582;2023-02-04T11:02:51;7.50;99.90
35678;DHT22;21791;42.828;74.582;2023-02-04T11:05:22;7.70;99.90
35678;DHT22;21791;42.828;74.582;2023-02-04T11:07:49;7.90;99.90
35678;DHT22;21791;42.828;74.582;2023-02-04T11:10:21;7.20;99.90
35678;DHT22;21791;42.828;74.582;2023-02-04T11:15:41;7.30;99.90
35678;DHT22;21791;42.828;74.582;2023-02-04T11:18:12;7.70;99.90
35678;DHT22;21791;42.828;74.582;2023-02-04T11:20:40;7.00;99.90
35678;DHT22;21791;42.828;74.582;2023-02-04T11:26:10;6.00;99.90
35678;DHT22;21791;42.828;74.582;2023-02-04T11:29:05;5.50;99.90
35678;DHT22;21791;42.828;74.582;2023-02-04T11:34:24;5.00;99.90
35678;DHT22;21791;42.828;74.582;2023-02-04T11:39:37;4.70;99.90
35678;DHT22;21791;42.828;74.582;2023-02-04T11:42:05;4.60;99.90
35678;DHT22;21791;42.828;74.582;2023-02-04T11:44:32;4.50;99.90
35678;DHT22;21791;42.828;74.582;2023-02-04T11:47:00;4.50;99.90
35678;DHT22;21791;42.828;74.582;2023-02-04T11:49:28;4.50;99.90
35678;DHT22;21791;42.828;74.582;2023-02-04T11:52:10;4.50;99.90
35678;DHT22;21791;42.828;74.582;2023-02-04T11:54:39;4.40;99.90
35678;DHT22;21791;42.828;74.582;2023-02-04T11:57:05;4.40;99.90
35678;DHT22;21791;42.828;74.582;2023-02-04T11:59:32;4.30;99.90
35678;DHT22;21791;42.828;74.582;2023-02-04T12:02:13;4.30;99.90
35678;DHT22;21791;42.828;74.582;2023-02-04T12:04:54;4.20;99.90
35678;DHT22;21791;42.828;74.582;2023-02-04T12:07:27;4.00;99.90
35678;DHT22;21791;42.828;74.582;2023-02-04T12:09:54;3.90;99.90
35678;DHT22;21791;42.828;74.582;2023-02-04T12:12:29;3.90;99.90
35678;DHT22;21791;42.828;74.582;2023-02-04T12:15:03;3.80;99.90
35678;DHT22;21791;42.828;74.582;2023-02-04T12:17:34;4.00;99.90
35678;DHT22;21791;42.828;74.582;2023-02-04T12:20:00;3.90;99.90
35678;DHT22;21791;42.828;74.582;2023-02-04T12:22:27;3.90;99.90
35678;DHT22;21791;42.828;74.582;2023-02-04T12:24:53;3.90;99.90
35678;DHT22;21791;42.828;74.582;2023-02-04T12:27:20;3.80;99.90
35678;DHT22;21791;42.828;74.582;2023-02-04T12:29:47;3.80;99.90
35678;DHT22;21791;42.828;74.582;2023-02-04T12:32:13;3.70;99.90
35678;DHT22;21791;42.828;74.582;2023-02-04T12:34:40;3.60;99.90
35678;DHT22;21791;42.828;74.582;2023-02-04T12:37:06;3.50;99.90
35678;DHT22;21791;42.828;74.582;2023-02-04T12:39:33;3.50;99.90
35678;DHT22;21791;42.828;74.582;2023-02-04T12:41:59;3.50;99.90
35678;DHT22;21791;42.828;74.582;2023-02-04T12:44:26;3.40;99.90
35678;DHT22;21791;42.828;74.582;2023-02-04T12:46:52;3.30;99.90
35678;DHT22;21791;42.828;74.582;2023-02-04T12:49:20;3.10;99.90
35678;DHT22;21791;42.828;74.582;2023-02-04T12:51:50;3.00;99.90
35678;DHT22;21791;42.828;74.582;2023-02-04T12:54:16;2.90;99.90
35678;DHT22;21791;42.828;74.582;2023-02-04T12:56:43;2.90;99.90
35678;DHT22;21791;42.828;74.582;2023-02-04T12:59:09;3.10;99.90
35678;DHT22;21791;42.828;74.582;2023-02-04T13:01:35;3.40;99.90
35678;DHT22;21791;42.828;74.582;2023-02-04T13:04:02;3.50;99.90
35678;DHT22;21791;42.828;74.582;2023-02-04T13:06:29;3.60;99.90
35678;DHT22;21791;42.828;74.582;2023-02-04T13:08:56;3.40;99.90
35678;DHT22;21791;42.828;74.582;2023-02-04T13:11:22;3.50;99.90
35678;DHT22;21791;42.828;74.582;2023-02-04T13:13:49;3.50;99.90
35678;DHT22;21791;42.828;74.582;2023-02-04T13:16:15;3.40;99.90
35678;DHT22;21791;42.828;74.582;2023-02-04T13:18:44;3.40;99.90
35678;DHT22;21791;42.828;74.582;2023-02-04T13:21:10;3.30;99.90
35678;DHT22;21791;42.828;74.582;2023-02-04T13:23:40;3.20;99.90
35678;DHT22;21791;42.828;74.582;2023-02-04T13:26:06;3.20;99.90
35678;DHT22;21791;42.828;74.582;2023-02-04T13:28:35;3.10;99.90
35678;DHT22;21791;42.828;74.582;2023-02-04T13:31:01;3.00;99.90
35678;DHT22;21791;42.828;74.582;2023-02-04T13:33:28;3.10;99.90
35678;DHT22;21791;42.828;74.582;2023-02-04T13:35:54;3.10;99.90
35678;DHT22;21791;42.828;74.582;2023-02-04T13:38:24;3.00;99.90
35678;DHT22;21791;42.828;74.582;2023-02-04T13:40:51;3.10;99.90
35678;DHT22;21791;42.828;74.582;2023-02-04T13:43:19;3.00;99.90
35678;DHT22;21791;42.828;74.582;2023-02-04T13:45:49;3.00;99.90
35678;DHT22;21791;42.828;74.582;2023-02-04T13:48:15;2.90;99.90
35678;DHT22;21791;42.828;74.582;2023-02-04T13:50:42;2.70;99.90
35678;DHT22;21791;42.828;74.582;2023-02-04T13:53:11;2.60;99.90
35678;DHT22;21791;42.828;74.582;2023-02-04T13:55:38;2.50;99.90
35678;DHT22;21791;42.828;74.582;2023-02-04T13:58:04;2.50;99.90
35678;DHT22;21791;42.828;74.582;2023-02-04T14:00:30;2.60;99.90
35678;DHT22;21791;42.828;74.582;2023-02-04T14:02:57;2.60;99.90
35678;DHT22;21791;42.828;74.582;2023-02-04T14:05:23;2.70;99.90
35678;DHT22;21791;42.828;74.582;2023-02-04T14:07:50;2.70;99.90
35678;DHT22;21791;42.828;74.582;2023-02-04T14:10:17;2.60;99.90
35678;DHT22;21791;42.828;74.582;2023-02-04T14:12:44;2.60;99.90
35678;DHT22;21791;42.828;74.582;2023-02-04T14:15:10;2.40;99.90
35678;DHT22;21791;42.828;74.582;2023-02-04T14:17:37;2.30;99.90
35678;DHT22;21791;42.828;74.582;2023-02-04T14:20:03;2.30;99.90
35678;DHT22;21791;42.828;74.582;2023-02-04T14:22:31;2.30;99.90
35678;DHT22;21791;42.828;74.582;2023-02-04T14:24:58;2.30;99.90
35678;DHT22;21791;42.828;74.582;2023-02-04T14:27:24;2.60;99.90
35678;DHT22;21791;42.828;74.582;2023-02-04T14:29:52;2.50;99.90
35678;DHT22;21791;42.828;74.582;2023-02-04T14:32:18;2.50;99.90
35678;DHT22;21791;42.828;74.582;2023-02-04T14:34:46;2.50;99.90
35678;DHT22;21791;42.828;74.582;2023-02-04T14:37:13;2.60;99.90
35678;DHT22;21791;42.828;74.582;2023-02-04T14:39:39;2.60;99.90
35678;DHT22;21791;42.828;74.582;2023-02-04T14:42:05;2.70;99.90
35678;DHT22;21791;42.828;74.582;2023-02-04T14:44:32;2.60;99.90
35678;DHT22;21791;42.828;74.582;2023-02-04T14:46:59;2.60;99.90
35678;DHT22;21791;42.828;74.582;2023-02-04T14:49:25;2.40;99.90
35678;DHT22;21791;42.828;74.582;2023-02-04T14:51:52;2.30;99.90
35678;DHT22;21791;42.828;74.582;2023-02-04T14:54:18;1.90;99.90
35678;DHT22;21791;42.828;74.582;2023-02-04T14:56:45;1.70;99.90
35678;DHT22;21791;42.828;74.582;2023-02-04T14:59:12;1.40;99.90
35678;DHT22;21791;42.828;74.582;2023-02-04T15:01:39;1.20;99.90
35678;DHT22;21791;42.828;74.582;2023-02-04T15:04:07;1.30;99.90
35678;DHT22;21791;42.828;74.582;2023-02-04T15:06:33;1.10;99.90
35678;DHT22;21791;42.828;74.582;2023-02-04T15:09:00;1.20;99.90
35678;DHT22;21791;42.828;74.582;2023-02-04T15:11:27;1.20;99.90
35678;DHT22;21791;42.828;74.582;2023-02-04T15:13:53;1.10;99.90
35678;DHT22;21791;42.828;74.582;2023-02-04T15:16:20;0.80;99.90
35678;DHT22;21791;42.828;74.582;2023-02-04T15:18:47;0.80;99.90
35678;DHT22;21791;42.828;74.582;2023-02-04T15:21:13;0.60;99.90
35678;DHT22;21791;42.828;74.582;2023-02-04T15:23:44;0.60;99.90
35678;DHT22;21791;42.828;74.582;2023-02-04T15:26:13;0.70;99.90
35678;DHT22;21791;42.828;74.582;2023-02-04T15:28:39;1.10;99.90
35678;DHT22;21791;42.828;74.582;2023-02-04T15:31:08;1.50;99.90
35678;DHT22;21791;42.828;74.582;2023-02-04T15:33:37;1.70;99.90
35678;DHT22;21791;42.828;74.582;2023-02-04T15:36:06;1.80;99.90
35678;DHT22;21791;42.828;74.582;2023-02-04T15:38:35;1.90;99.90
35678;DHT22;21791;42.828;74.582;2023-02-04T15:41:02;2.00;99.90
35678;DHT22;21791;42.828;74.582;2023-02-04T15:43:29;2.30;99.90
35678;DHT22;21791;42.828;74.582;2023-02-04T15:45:56;2.40;99.90
35678;DHT22;21791;42.828;74.582;2023-02-04T15:48:25;2.30;99.90
35678;DHT22;21791;42.828;74.582;2023-02-04T15:50:54;2.40;99.90
35678;DHT22;21791;42.828;74.582;2023-02-04T15:53:20;2.30;99.90
35678;DHT22;21791;42.828;74.582;2023-02-04T15:55:47;2.10;99.90
35678;DHT22;21791;42.828;74.582;2023-02-04T15:58:13;1.90;99.90
35678;DHT22;21791;42.828;74.582;2023-02-04T16:00:41;2.00;99.90
35678;DHT22;21791;42.828;74.582;2023-02-04T16:03:07;2.20;99.90
35678;DHT22;21791;42.828;74.582;2023-02-04T16:05:34;2.40;99.90
35678;DHT22;21791;42.828;74.582;2023-02-04T16:08:00;2.60;99.90
35678;DHT22;21791;42.828;74.582;2023-02-04T16:10:27;2.50;99.90
35678;DHT22;21791;42.828;74.582;2023-02-04T16:12:54;2.40;99.90
35678;DHT22;21791;42.828;74.582;2023-02-04T16:15:24;2.80;99.90
35678;DHT22;21791;42.828;74.582;2023-02-04T16:17:51;3.10;99.90
35678;DHT22;21791;42.828;74.582;2023-02-04T16:20:19;3.20;99.90
35678;DHT22;21791;42.828;74.582;2023-02-04T16:22:47;3.30;99.90
35678;DHT22;21791;42.828;74.582;2023-02-04T16:25:13;3.40;99.90
35678;DHT22;21791;42.828;74.582;2023-02-04T16:27:40;3.40;99.90
35678;DHT22;21791;42.828;74.582;2023-02-04T16:30:07;3.40;99.90
35678;DHT22;21791;42.828;74.582;2023-02-04T16:32:34;3.70;99.90
35678;DHT22;21791;42.828;74.582;2023-02-04T16:35:02;3.80;99.90
35678;DHT22;21791;42.828;74.582;2023-02-04T16:37:30;3.90;99.90
35678;DHT22;21791;42.828;74.582;2023-02-04T16:39:56;4.10;99.90
35678;DHT22;21791;42.828;74.582;2023-02-04T16:42:23;4.10;99.90
35678;DHT22;21791;42.828;74.582;2023-02-04T16:44:49;4.00;99.90
35678;DHT22;21791;42.828;74.582;2023-02-04T16:47:16;4.00;99.90
35678;DHT22;21791;42.828;74.582;2023-02-04T16:49:42;4.00;99.90
35678;DHT22;21791;42.828;74.582;2023-02-04T16:52:13;3.80;99.90
35678;DHT22;21791;42.828;74.582;2023-02-04T16:54:39;3.70;99.90
35678;DHT22;21791;42.828;74.582;2023-02-04T16:57:06;3.80;99.90
35678;DHT22;21791;42.828;74.582;2023-02-04T16:59:33;4.00;99.90
35678;DHT22;21791;42.828;74.582;2023-02-04T17:02:00;3.90;99.90
35678;DHT22;21791;42.828;74.582;2023-02-04T17:04:30;3.90;99.90
35678;DHT22;21791;42.828;74.582;2023-02-04T17:06:57;3.80;99.90
35678;DHT22;21791;42.828;74.582;2023-02-04T17:09:26;3.70;99.90
35678;DHT22;21791;42.828;74.582;2023-02-04T17:11:53;3.60;99.90
35678;DHT22;21791;42.828;74.582;2023-02-04T17:14:19;3.80;99.90
35678;DHT22;21791;42.828;74.582;2023-02-04T17:16:47;3.60;99.90
35678;DHT22;21791;42.828;74.582;2023-02-04T17:19:14;3.50;99.90
35678;DHT22;21791;42.828;74.582;2023-02-04T17:21:46;3.50;99.90
35678;DHT22;21791;42.828;74.582;2023-02-04T17:24:13;3.50;99.90
35678;DHT22;21791;42.828;74.582;2023-02-04T17:26:41;3.30;99.90
35678;DHT22;21791;42.828;74.582;2023-02-04T17:29:10;3.10;99.90
35678;DHT22;21791;42.828;74.582;2023-02-04T17:31:40;3.40;99.90
35678;DHT22;21791;42.828;74.582;2023-02-04T17:34:09;3.40;99.90
35678;DHT22;21791;42.828;74.582;2023-02-04T17:36:36;3.40;99.90
35678;DHT22;21791;42.828;74.582;2023-02-04T17:39:04;3.30;99.90
35678;DHT22;21791;42.828;74.582;2023-02-04T17:41:30;3.30;99.90
35678;DHT22;21791;42.828;74.582;2023-02-04T17:43:57;3.00;99.90
35678;DHT22;21791;42.828;74.582;2023-02-04T17:46:23;2.80;99.90
35678;DHT22;21791;42.828;74.582;2023-02-04T17:48:50;2.90;99.90
35678;DHT22;21791;42.828;74.582;2023-02-04T17:51:18;2.90;99.90
35678;DHT22;21791;42.828;74.582;2023-02-04T17:53:44;2.80;99.90
35678;DHT22;21791;42.828;74.582;2023-02-04T17:56:13;2.70;99.90
35678;DHT22;21791;42.828;74.582;2023-02-04T17:58:40;2.70;99.90
35678;DHT22;21791;42.828;74.582;2023-02-04T18:01:12;2.60;99.90
35678;DHT22;21791;42.828;74.582;2023-02-04T18:03:39;2.60;99.90
35678;DHT22;21791;42.828;74.582;2023-02-04T18:06:28;2.40;99.90
35678;DHT22;21791;42.828;74.582;2023-02-04T18:08:55;2.10;99.90
35678;DHT22;21791;42.828;74.582;2023-02-04T18:11:29;1.90;99.90
35678;DHT22;21791;42.828;74.582;2023-02-04T18:14:06;1.80;99.90
35678;DHT22;21791;42.828;74.582;2023-02-04T18:16:36;1.60;99.90
35678;DHT22;21791;42.828;74.582;2023-02-04T18:19:18;1.50;99.90
35678;DHT22;21791;42.828;74.582;2023-02-04T18:21:48;1.50;99.90
35678;DHT22;21791;42.828;74.582;2023-02-04T18:24:37;1.40;99.90
35678;DHT22;21791;42.828;74.582;2023-02-04T18:27:20;1.40;99.90
35678;DHT22;21791;42.828;74.582;2023-02-04T18:29:49;1.40;99.90
35678;DHT22;21791;42.828;74.582;2023-02-04T18:34:51;1.70;99.90
35678;DHT22;21791;42.828;74.582;2023-02-04T18:37:45;1.80;99.90
35678;DHT22;21791;42.828;74.582;2023-02-04T18:40:25;1.80;99.90
35678;DHT22;21791;42.828;74.582;2023-02-04T18:45:44;1.70;99.90
35678;DHT22;21791;42.828;74.582;2023-02-04T18:50:51;1.60;99.90
35678;DHT22;21791;42.828;74.582;2023-02-04T18:53:22;1.70;99.90
35678;DHT22;21791;42.828;74.582;2023-02-04T18:55:57;1.80;99.90
35678;DHT22;21791;42.828;74.582;2023-02-04T18:58:44;2.00;99.90
35678;DHT22;21791;42.828;74.582;2023-02-04T19:01:23;2.00;99.90
35678;DHT22;21791;42.828;74.582;2023-02-04T19:03:58;2.60;99.90
35678;DHT22;21791;42.828;74.582;2023-02-04T19:06:27;2.70;99.90
35678;DHT22;21791;42.828;74.582;2023-02-04T19:11:43;2.80;99.90
35678;DHT22;21791;42.828;74.582;2023-02-04T19:17:27;3.10;99.90
35678;DHT22;21791;42.828;74.582;2023-02-04T19:20:01;3.20;99.90
35678;DHT22;21791;42.828;74.582;2023-02-04T19:22:44;3.00;99.90
35678;DHT22;21791;42.828;74.582;2023-02-04T19:25:44;2.90;99.90
35678;DHT22;21791;42.828;74.582;2023-02-04T19:28:28;3.10;99.90
35678;DHT22;21791;42.828;74.582;2023-02-04T19:30:59;3.00;99.90
35678;DHT22;21791;42.828;74.582;2023-02-04T19:33:35;3.20;99.90
35678;DHT22;21791;42.828;74.582;2023-02-04T19:39:04;3.30;99.90
35678;DHT22;21791;42.828;74.582;2023-02-04T19:41:51;3.10;99.90
35678;DHT22;21791;42.828;74.582;2023-02-04T19:46:50;2.80;99.90
35678;DHT22;21791;42.828;74.582;2023-02-04T19:49:27;3.10;99.90
35678;DHT22;21791;42.828;74.582;2023-02-04T19:51:58;3.50;99.90
35678;DHT22;21791;42.828;74.582;2023-02-04T19:54:34;3.60;99.90
35678;DHT22;21791;42.828;74.582;2023-02-04T19:57:17;3.60;99.90
35678;DHT22;21791;42.828;74.582;2023-02-04T19:59:53;4.00;99.90
35678;DHT22;21791;42.828;74.582;2023-02-04T20:04:55;3.90;99.90
35678;DHT22;21791;42.828;74.582;2023-02-04T20:07:23;3.90;99.90
35678;DHT22;21791;42.828;74.582;2023-02-04T20:12:32;4.20;99.90
35678;DHT22;21791;42.828;74.582;2023-02-04T20:15:00;4.30;99.90
35678;DHT22;21791;42.828;74.582;2023-02-04T20:20:21;4.20;99.90
35678;DHT22;21791;42.828;74.582;2023-02-04T20:25:44;4.40;99.90
35678;DHT22;21791;42.828;74.582;2023-02-04T20:28:36;4.40;99.90
35678;DHT22;21791;42.828;74.582;2023-02-04T20:31:16;4.50;99.90
35678;DHT22;21791;42.828;74.582;2023-02-04T20:33:49;4.30;99.90
35678;DHT22;21791;42.828;74.582;2023-02-04T20:41:35;4.50;99.90
35678;DHT22;21791;42.828;74.582;2023-02-04T20:46:50;4.50;99.90
35678;DHT22;21791;42.828;74.582;2023-02-04T20:49:25;4.50;99.90
35678;DHT22;21791;42.828;74.582;2023-02-04T20:51:57;4.60;99.90
35678;DHT22;21791;42.828;74.582;2023-02-04T20:54:27;4.90;99.90
35678;DHT22;21791;42.828;74.582;2023-02-04T20:57:17;4.60;99.90
35678;DHT22;21791;42.828;74.582;2023-02-04T20:59:45;4.30;99.90
35678;DHT22;21791;42.828;74.582;2023-02-04T21:02:17;4.30;99.90
35678;DHT22;21791;42.828;74.582;2023-02-04T21:04:46;4.30;99.90
35678;DHT22;21791;42.828;74.582;2023-02-04T21:07:20;4.50;99.90
35678;DHT22;21791;42.828;74.582;2023-02-04T21:09:49;4.60;99.90
35678;DHT22;21791;42.828;74.582;2023-02-04T21:12:18;4.80;99.90
35678;DHT22;21791;42.828;74.582;2023-02-04T21:14:45;4.80;99.90
35678;DHT22;21791;42.828;74.582;2023-02-04T21:17:15;4.80;99.90
35678;DHT22;21791;42.828;74.582;2023-02-04T21:19:42;4.80;99.90
35678;DHT22;21791;42.828;74.582;2023-02-04T21:22:11;4.70;99.90
35678;DHT22;21791;42.828;74.582;2023-02-04T21:24:37;4.60;99.90
35678;DHT22;21791;42.828;74.582;2023-02-04T21:27:10;4.40;99.90
35678;DHT22;21791;42.828;74.582;2023-02-04T21:29:36;4.30;99.90
35678;DHT22;21791;42.828;74.582;2023-02-04T21:32:03;4.10;99.90
35678;DHT22;21791;42.828;74.582;2023-02-04T21:34:29;3.90;99.90
35678;DHT22;21791;42.828;74.582;2023-02-04T21:36:56;3.70;99.90
35678;DHT22;21791;42.828;74.582;2023-02-04T21:39:22;3.60;99.90
35678;DHT22;21791;42.828;74.582;2023-02-04T21:41:50;3.40;99.90
35678;DHT22;21791;42.828;74.582;2023-02-04T21:44:36;3.40;99.90
35678;DHT22;21791;42.828;74.582;2023-02-04T21:47:03;3.20;99.90
35678;DHT22;21791;42.828;74.582;2023-02-04T21:49:32;3.00;99.90
35678;DHT22;21791;42.828;74.582;2023-02-04T21:51:59;2.80;99.90
35678;DHT22;21791;42.828;74.582;2023-02-04T21:54:25;2.70;99.90
35678;DHT22;21791;42.828;74.582;2023-02-04T21:56:51;2.60;99.90
35678;DHT22;21791;42.828;74.582;2023-02-04T21:59:17;2.50;99.90
35678;DHT22;21791;42.828;74.582;2023-02-04T22:01:45;2.60;99.90
35678;DHT22;21791;42.828;74.582;2023-02-04T22:04:12;2.50;99.90
35678;DHT22;21791;42.828;74.582;2023-02-04T22:06:38;2.40;99.90
35678;DHT22;21791;42.828;74.582;2023-02-04T22:09:05;2.40;99.90
35678;DHT22;21791;42.828;74.582;2023-02-04T22:11:32;2.50;99.90
35678;DHT22;21791;42.828;74.582;2023-02-04T22:13:59;2.60;99.90
35678;DHT22;21791;42.828;74.582;2023-02-04T22:16:28;2.50;99.90
35678;DHT22;21791;42.828;74.582;2023-02-04T22:18:55;2.20;99.90
35678;DHT22;21791;42.828;74.582;2023-02-04T22:21:21;2.10;99.90
35678;DHT22;21791;42.828;74.582;2023-02-04T22:23:47;2.10;99.90
35678;DHT22;21791;42.828;74.582;2023-02-04T22:26:13;2.10;99.90
35678;DHT22;21791;42.828;74.582;2023-02-04T22:28:40;2.30;99.90
35678;DHT22;21791;42.828;74.582;2023-02-04T22:31:06;2.50;99.90
35678;DHT22;21791;42.828;74.582;2023-02-04T22:33:34;3.10;99.90
35678;DHT22;21791;42.828;74.582;2023-02-04T22:36:00;3.40;99.90
35678;DHT22;21791;42.828;74.582;2023-02-04T22:38:26;3.70;99.90
35678;DHT22;21791;42.828;74.582;2023-02-04T22:40:53;3.90;99.90
35678;DHT22;21791;42.828;74.582;2023-02-04T22:43:19;3.90;99.90
35678;DHT22;21791;42.828;74.582;2023-02-04T22:45:49;3.90;99.90
35678;DHT22;21791;42.828;74.582;2023-02-04T22:48:15;3.60;99.90
35678;DHT22;21791;42.828;74.582;2023-02-04T22:50:41;3.50;99.90
35678;DHT22;21791;42.828;74.582;2023-02-04T22:53:08;3.40;99.90
35678;DHT22;21791;42.828;74.582;2023-02-04T22:55:34;3.70;99.90
35678;DHT22;21791;42.828;74.582;2023-02-04T22:58:00;3.80;99.90
35678;DHT22;21791;42.828;74.582;2023-02-04T23:00:30;3.70;99.90
35678;DHT22;21791;42.828;74.582;2023-02-04T23:02:57;3.70;99.90
35678;DHT22;21791;42.828;74.582;2023-02-04T23:05:23;3.70;99.90
35678;DHT22;21791;42.828;74.582;2023-02-04T23:07:50;3.70;99.90
35678;DHT22;21791;42.828;74.582;2023-02-04T23:10:16;3.60;99.90
35678;DHT22;21791;42.828;74.582;2023-02-04T23:12:42;3.60;99.90
35678;DHT22;21791;42.828;74.582;2023-02-04T23:15:10;3.50;99.90
35678;DHT22;21791;42.828;74.582;2023-02-04T23:17:37;3.60;99.90
35678;DHT22;21791;42.828;74.582;2023-02-04T23:20:08;3.60;99.90
35678;DHT22;21791;42.828;74.582;2023-02-04T23:22:34;3.40;99.90
35678;DHT22;21791;42.828;74.582;2023-02-04T23:25:01;3.20;99.90
35678;DHT22;21791;42.828;74.582;2023-02-04T23:27:27;3.20;99.90
35678;DHT22;21791;42.828;74.582;2023-02-04T23:29:54;3.20;99.90
35678;DHT22;21791;42.828;74.582;2023-02-04T23:32:21;3.10;99.90
35678;DHT22;21791;42.828;74.582;2023-02-04T23:34:52;2.90;99.90
35678;DHT22;21791;42.828;74.582;2023-02-04T23:37:18;2.70;99.90
35678;DHT22;21791;42.828;74.582;2023-02-04T23:39:45;2.40;99.90
35678;DHT22;21791;42.828;74.582;2023-02-04T23:42:11;2.30;99.90
35678;DHT22;21791;42.828;74.582;2023-02-04T23:44:40;2.40;99.90
35678;DHT22;21791;42.828;74.582;2023-02-04T23:47:06;2.30;99.90
35678;DHT22;21791;42.828;74.582;2023-02-04T23:49:33;2.20;99.90
35678;DHT22;21791;42.828;74.582;2023-02-04T23:51:59;2.00;99.90
35678;DHT22;21791;42.828;74.582;2023-02-04T23:54:26;1.70;99.90
35678;DHT22;21791;42.828;74.582;2023-02-04T23:56:53;1.60;99.90